sensor_id;sensor_type;location;lat;lon;timestamp;P1;durP1;ratioP1;P2;durP2;ratioP2
43744;SDS011;29359;53.048;8.732;2023-04-01T00:00:08;6.50;;;5.07;;
43744;SDS011;29359;53.048;8.732;2023-04-01T00:02:10;6.60;;;5.35;;
43744;SDS011;29359;53.048;8.732;2023-04-01T00:04:12;6.82;;;5.05;;
43744;SDS011;29359;53.048;8.732;2023-04-01T00:06:15;7.88;;;5.65;;
43744;SDS011;29359;53.048;8.732;2023-04-01T00:08:18;5.75;;;5.22;;
43744;SDS011;29359;53.048;8.732;2023-04-01T00:10:20;7.45;;;6.60;;
43744;SDS011;29359;53.048;8.732;2023-04-01T00:12:21;7.85;;;5.88;;
43744;SDS011;29359;53.048;8.732;2023-04-01T00:14:23;7.05;;;5.80;;
43744;SDS011;29359;53.048;8.732;2023-04-01T00:16:24;8.05;;;5.43;;
43744;SDS011;29359;53.048;8.732;2023-04-01T00:18:26;8.32;;;6.30;;
43744;SDS011;29359;53.048;8.732;2023-04-01T00:20:28;7.75;;;5.70;;
43744;SDS011;29359;53.048;8.732;2023-04-01T00:22:30;9.57;;;6.05;;
43744;SDS011;29359;53.048;8.732;2023-04-01T00:24:32;6.40;;;5.20;;
43744;SDS011;29359;53.048;8.732;2023-04-01T00:26:34;7.40;;;6.15;;
43744;SDS011;29359;53.048;8.732;2023-04-01T00:28:35;9.35;;;6.05;;
43744;SDS011;29359;53.048;8.732;2023-04-01T00:30:37;7.57;;;5.32;;
43744;SDS011;29359;53.048;8.732;2023-04-01T00:32:39;9.10;;;5.47;;
43744;SDS011;29359;53.048;8.732;2023-04-01T00:34:41;8.63;;;5.57;;
43744;SDS011;29359;53.048;8.732;2023-04-01T00:36:42;7.00;;;5.70;;
43744;SDS011;29359;53.048;8.732;2023-04-01T00:38:44;6.00;;;5.35;;
43744;SDS011;29359;53.048;8.732;2023-04-01T00:40:47;5.72;;;5.20;;
43744;SDS011;29359;53.048;8.732;2023-04-01T00:42:48;6.03;;;5.53;;
43744;SDS011;29359;53.048;8.732;2023-04-01T00:44:50;6.90;;;5.35;;
43744;SDS011;29359;53.048;8.732;2023-04-01T00:46:53;6.50;;;5.32;;
43744;SDS011;29359;53.048;8.732;2023-04-01T00:48:55;5.60;;;5.00;;
43744;SDS011;29359;53.048;8.732;2023-04-01T00:53:03;6.65;;;5.55;;
43744;SDS011;29359;53.048;8.732;2023-04-01T00:55:06;5.32;;;4.93;;
43744;SDS011;29359;53.048;8.732;2023-04-01T00:57:12;6.18;;;5.57;;
43744;SDS011;29359;53.048;8.732;2023-04-01T01:01:22;8.13;;;5.55;;
43744;SDS011;29359;53.048;8.732;2023-04-01T01:03:26;6.65;;;5.88;;
43744;SDS011;29359;53.048;8.732;2023-04-01T01:05:36;9.52;;;6.07;;
43744;SDS011;29359;53.048;8.732;2023-04-01T01:07:57;6.97;;;5.70;;
43744;SDS011;29359;53.048;8.732;2023-04-01T01:10:16;8.18;;;5.63;;
43744;SDS011;29359;53.048;8.732;2023-04-01T01:12:31;6.70;;;5.93;;
43744;SDS011;29359;53.048;8.732;2023-04-01T01:17:02;6.93;;;5.53;;
43744;SDS011;29359;53.048;8.732;2023-04-01T01:21:57;6.43;;;5.82;;
43744;SDS011;29359;53.048;8.732;2023-04-01T01:27:03;6.13;;;5.63;;
43744;SDS011;29359;53.048;8.732;2023-04-01T01:31:33;5.55;;;5.03;;
43744;SDS011;29359;53.048;8.732;2023-04-01T01:33:52;5.90;;;5.50;;
43744;SDS011;29359;53.048;8.732;2023-04-01T01:35:58;5.25;;;4.75;;
43744;SDS011;29359;53.048;8.732;2023-04-01T01:38:07;7.03;;;5.70;;
43744;SDS011;29359;53.048;8.732;2023-04-01T01:40:12;6.03;;;5.20;;
43744;SDS011;29359;53.048;8.732;2023-04-01T01:42:17;5.78;;;5.22;;
43744;SDS011;29359;53.048;8.732;2023-04-01T01:44:20;5.65;;;5.15;;
43744;SDS011;29359;53.048;8.732;2023-04-01T01:46:23;5.70;;;5.20;;
43744;SDS011;29359;53.048;8.732;2023-04-01T01:48:27;5.93;;;5.45;;
43744;SDS011;29359;53.048;8.732;2023-04-01T01:50:32;5.97;;;5.30;;
43744;SDS011;29359;53.048;8.732;2023-04-01T01:52:35;6.80;;;5.50;;
43744;SDS011;29359;53.048;8.732;2023-04-01T01:54:36;7.05;;;5.22;;
43744;SDS011;29359;53.048;8.732;2023-04-01T01:56:48;6.55;;;5.95;;
43744;SDS011;29359;53.048;8.732;2023-04-01T01:59:06;6.72;;;6.05;;
43744;SDS011;29359;53.048;8.732;2023-04-01T02:01:21;6.33;;;5.73;;
43744;SDS011;29359;53.048;8.732;2023-04-01T02:03:28;6.07;;;5.57;;
43744;SDS011;29359;53.048;8.732;2023-04-01T02:05:32;7.30;;;5.90;;
43744;SDS011;29359;53.048;8.732;2023-04-01T02:07:34;5.18;;;4.85;;
43744;SDS011;29359;53.048;8.732;2023-04-01T02:09:38;5.90;;;5.40;;
43744;SDS011;29359;53.048;8.732;2023-04-01T02:13:55;5.82;;;5.25;;
43744;SDS011;29359;53.048;8.732;2023-04-01T02:16:25;5.72;;;5.30;;
43744;SDS011;29359;53.048;8.732;2023-04-01T02:18:33;6.75;;;5.68;;
43744;SDS011;29359;53.048;8.732;2023-04-01T02:20:38;7.72;;;5.60;;
43744;SDS011;29359;53.048;8.732;2023-04-01T02:22:42;5.57;;;5.18;;
43744;SDS011;29359;53.048;8.732;2023-04-01T02:24:48;6.65;;;5.55;;
43744;SDS011;29359;53.048;8.732;2023-04-01T02:26:52;6.28;;;5.43;;
43744;SDS011;29359;53.048;8.732;2023-04-01T02:28:54;5.78;;;5.30;;
43744;SDS011;29359;53.048;8.732;2023-04-01T02:30:57;5.65;;;5.22;;
43744;SDS011;29359;53.048;8.732;2023-04-01T02:33:01;6.10;;;5.60;;
43744;SDS011;29359;53.048;8.732;2023-04-01T02:35:11;6.95;;;6.25;;
43744;SDS011;29359;53.048;8.732;2023-04-01T02:37:14;6.22;;;5.72;;
43744;SDS011;29359;53.048;8.732;2023-04-01T02:39:16;6.63;;;6.00;;
43744;SDS011;29359;53.048;8.732;2023-04-01T02:41:18;7.35;;;6.55;;
43744;SDS011;29359;53.048;8.732;2023-04-01T02:43:20;8.60;;;5.80;;
43744;SDS011;29359;53.048;8.732;2023-04-01T02:45:22;6.57;;;5.97;;
43744;SDS011;29359;53.048;8.732;2023-04-01T02:47:23;6.03;;;5.63;;
43744;SDS011;29359;53.048;8.732;2023-04-01T02:49:25;6.63;;;6.13;;
43744;SDS011;29359;53.048;8.732;2023-04-01T02:51:27;7.22;;;6.03;;
43744;SDS011;29359;53.048;8.732;2023-04-01T02:53:28;6.03;;;5.53;;
43744;SDS011;29359;53.048;8.732;2023-04-01T02:55:29;6.25;;;5.40;;
43744;SDS011;29359;53.048;8.732;2023-04-01T02:57:32;6.28;;;5.75;;
43744;SDS011;29359;53.048;8.732;2023-04-01T02:59:34;6.25;;;5.65;;
43744;SDS011;29359;53.048;8.732;2023-04-01T03:01:36;7.70;;;5.90;;
43744;SDS011;29359;53.048;8.732;2023-04-01T03:03:37;6.65;;;6.05;;
43744;SDS011;29359;53.048;8.732;2023-04-01T03:05:40;6.50;;;5.90;;
43744;SDS011;29359;53.048;8.732;2023-04-01T03:07:43;6.80;;;6.07;;
43744;SDS011;29359;53.048;8.732;2023-04-01T03:09:44;6.22;;;5.70;;
43744;SDS011;29359;53.048;8.732;2023-04-01T03:11:46;6.78;;;6.18;;
43744;SDS011;29359;53.048;8.732;2023-04-01T03:13:47;6.18;;;5.70;;
43744;SDS011;29359;53.048;8.732;2023-04-01T03:15:49;7.72;;;6.28;;
43744;SDS011;29359;53.048;8.732;2023-04-01T03:17:51;6.30;;;5.57;;
43744;SDS011;29359;53.048;8.732;2023-04-01T03:19:53;6.90;;;6.22;;
43744;SDS011;29359;53.048;8.732;2023-04-01T03:21:54;6.82;;;6.13;;
43744;SDS011;29359;53.048;8.732;2023-04-01T03:23:56;6.60;;;5.97;;
43744;SDS011;29359;53.048;8.732;2023-04-01T03:25:57;8.15;;;6.10;;
43744;SDS011;29359;53.048;8.732;2023-04-01T03:27:59;6.40;;;5.82;;
43744;SDS011;29359;53.048;8.732;2023-04-01T03:30:01;6.30;;;5.90;;
43744;SDS011;29359;53.048;8.732;2023-04-01T03:32:07;7.55;;;6.40;;
43744;SDS011;29359;53.048;8.732;2023-04-01T03:34:08;7.18;;;6.25;;
43744;SDS011;29359;53.048;8.732;2023-04-01T03:36:10;7.68;;;6.07;;
43744;SDS011;29359;53.048;8.732;2023-04-01T03:38:13;5.88;;;5.40;;
43744;SDS011;29359;53.048;8.732;2023-04-01T03:40:16;7.78;;;5.72;;
43744;SDS011;29359;53.048;8.732;2023-04-01T03:42:18;6.68;;;6.07;;
43744;SDS011;29359;53.048;8.732;2023-04-01T03:44:20;10.25;;;6.50;;
43744;SDS011;29359;53.048;8.732;2023-04-01T03:46:21;8.93;;;5.80;;
43744;SDS011;29359;53.048;8.732;2023-04-01T03:48:23;5.63;;;5.22;;
43744;SDS011;29359;53.048;8.732;2023-04-01T03:50:26;6.38;;;5.78;;
43744;SDS011;29359;53.048;8.732;2023-04-01T03:52:29;6.75;;;5.53;;
43744;SDS011;29359;53.048;8.732;2023-04-01T03:54:30;5.80;;;5.40;;
43744;SDS011;29359;53.048;8.732;2023-04-01T03:56:33;5.70;;;5.20;;
43744;SDS011;29359;53.048;8.732;2023-04-01T03:58:34;6.10;;;5.35;;
43744;SDS011;29359;53.048;8.732;2023-04-01T04:00:37;6.45;;;5.50;;
43744;SDS011;29359;53.048;8.732;2023-04-01T04:02:38;5.65;;;5.18;;
43744;SDS011;29359;53.048;8.732;2023-04-01T04:04:40;6.15;;;5.50;;
43744;SDS011;29359;53.048;8.732;2023-04-01T04:06:42;6.05;;;5.20;;
43744;SDS011;29359;53.048;8.732;2023-04-01T04:08:43;5.70;;;5.07;;
43744;SDS011;29359;53.048;8.732;2023-04-01T04:10:45;6.13;;;5.15;;
43744;SDS011;29359;53.048;8.732;2023-04-01T04:12:48;5.10;;;4.72;;
43744;SDS011;29359;53.048;8.732;2023-04-01T04:14:50;5.72;;;5.15;;
43744;SDS011;29359;53.048;8.732;2023-04-01T04:16:51;5.40;;;4.90;;
43744;SDS011;29359;53.048;8.732;2023-04-01T04:18:54;9.00;;;5.15;;
43744;SDS011;29359;53.048;8.732;2023-04-01T04:20:55;4.68;;;4.20;;
43744;SDS011;29359;53.048;8.732;2023-04-01T04:22:57;5.50;;;4.60;;
43744;SDS011;29359;53.048;8.732;2023-04-01T04:24:58;4.40;;;4.00;;
43744;SDS011;29359;53.048;8.732;2023-04-01T04:27:00;4.90;;;4.50;;
43744;SDS011;29359;53.048;8.732;2023-04-01T04:29:01;4.60;;;4.20;;
43744;SDS011;29359;53.048;8.732;2023-04-01T04:31:03;6.82;;;4.43;;
43744;SDS011;29359;53.048;8.732;2023-04-01T04:33:08;4.95;;;4.38;;
43744;SDS011;29359;53.048;8.732;2023-04-01T04:35:10;11.02;;;4.00;;
43744;SDS011;29359;53.048;8.732;2023-04-01T04:37:12;6.60;;;4.57;;
43744;SDS011;29359;53.048;8.732;2023-04-01T04:39:13;4.38;;;3.97;;
43744;SDS011;29359;53.048;8.732;2023-04-01T04:41:16;5.85;;;4.10;;
43744;SDS011;29359;53.048;8.732;2023-04-01T04:43:19;5.68;;;4.18;;
43744;SDS011;29359;53.048;8.732;2023-04-01T04:45:21;8.20;;;3.88;;
43744;SDS011;29359;53.048;8.732;2023-04-01T04:47:22;4.25;;;3.85;;
43744;SDS011;29359;53.048;8.732;2023-04-01T04:49:24;4.60;;;4.20;;
43744;SDS011;29359;53.048;8.732;2023-04-01T04:51:25;5.63;;;4.25;;
43744;SDS011;29359;53.048;8.732;2023-04-01T04:53:27;4.25;;;3.75;;
43744;SDS011;29359;53.048;8.732;2023-04-01T04:55:28;6.93;;;4.07;;
43744;SDS011;29359;53.048;8.732;2023-04-01T04:57:30;4.03;;;3.72;;
43744;SDS011;29359;53.048;8.732;2023-04-01T04:59:32;6.68;;;3.58;;
43744;SDS011;29359;53.048;8.732;2023-04-01T05:01:33;7.80;;;4.35;;
43744;SDS011;29359;53.048;8.732;2023-04-01T05:03:35;4.80;;;3.70;;
43744;SDS011;29359;53.048;8.732;2023-04-01T05:05:36;3.67;;;3.38;;
43744;SDS011;29359;53.048;8.732;2023-04-01T05:07:39;3.95;;;3.58;;
43744;SDS011;29359;53.048;8.732;2023-04-01T05:09:40;5.95;;;3.90;;
43744;SDS011;29359;53.048;8.732;2023-04-01T05:11:42;3.88;;;3.65;;
43744;SDS011;29359;53.048;8.732;2023-04-01T05:13:43;5.35;;;3.67;;
43744;SDS011;29359;53.048;8.732;2023-04-01T05:15:46;7.20;;;3.83;;
43744;SDS011;29359;53.048;8.732;2023-04-01T05:17:47;4.10;;;3.38;;
43744;SDS011;29359;53.048;8.732;2023-04-01T05:19:49;4.20;;;3.53;;
43744;SDS011;29359;53.048;8.732;2023-04-01T05:21:50;5.47;;;4.22;;
43744;SDS011;29359;53.048;8.732;2023-04-01T05:23:53;3.83;;;3.45;;
43744;SDS011;29359;53.048;8.732;2023-04-01T05:25:55;4.10;;;3.13;;
43744;SDS011;29359;53.048;8.732;2023-04-01T05:27:58;5.80;;;3.75;;
43744;SDS011;29359;53.048;8.732;2023-04-01T05:29:59;3.85;;;3.30;;
43744;SDS011;29359;53.048;8.732;2023-04-01T05:32:01;2.95;;;2.75;;
43744;SDS011;29359;53.048;8.732;2023-04-01T05:34:02;5.88;;;2.88;;
43744;SDS011;29359;53.048;8.732;2023-04-01T05:36:10;3.70;;;3.05;;
43744;SDS011;29359;53.048;8.732;2023-04-01T05:38:14;5.75;;;3.08;;
43744;SDS011;29359;53.048;8.732;2023-04-01T05:40:15;4.25;;;3.13;;
43744;SDS011;29359;53.048;8.732;2023-04-01T05:42:17;5.72;;;2.60;;
43744;SDS011;29359;53.048;8.732;2023-04-01T05:44:18;3.55;;;3.22;;
43744;SDS011;29359;53.048;8.732;2023-04-01T05:46:20;10.00;;;3.00;;
43744;SDS011;29359;53.048;8.732;2023-04-01T05:48:22;3.10;;;2.80;;
43744;SDS011;29359;53.048;8.732;2023-04-01T05:50:23;3.22;;;2.45;;
43744;SDS011;29359;53.048;8.732;2023-04-01T05:52:25;2.55;;;2.40;;
43744;SDS011;29359;53.048;8.732;2023-04-01T05:54:26;3.05;;;2.78;;
43744;SDS011;29359;53.048;8.732;2023-04-01T05:56:28;2.83;;;2.63;;
43744;SDS011;29359;53.048;8.732;2023-04-01T05:58:29;3.42;;;3.13;;
43744;SDS011;29359;53.048;8.732;2023-04-01T06:00:31;6.50;;;2.58;;
43744;SDS011;29359;53.048;8.732;2023-04-01T06:02:32;2.78;;;2.58;;
43744;SDS011;29359;53.048;8.732;2023-04-01T06:04:35;6.18;;;2.83;;
43744;SDS011;29359;53.048;8.732;2023-04-01T06:06:39;6.40;;;2.60;;
43744;SDS011;29359;53.048;8.732;2023-04-01T06:08:41;2.78;;;2.38;;
43744;SDS011;29359;53.048;8.732;2023-04-01T06:13:06;3.97;;;2.30;;
43744;SDS011;29359;53.048;8.732;2023-04-01T06:30:22;4.75;;;2.35;;
43744;SDS011;29359;53.048;8.732;2023-04-01T06:32:37;2.70;;;2.30;;
43744;SDS011;29359;53.048;8.732;2023-04-01T06:39:56;2.25;;;2.15;;
43744;SDS011;29359;53.048;8.732;2023-04-01T06:46:59;4.30;;;2.38;;
43744;SDS011;29359;53.048;8.732;2023-04-01T06:51:51;6.15;;;1.90;;
43744;SDS011;29359;53.048;8.732;2023-04-01T06:54:18;2.38;;;1.90;;
43744;SDS011;29359;53.048;8.732;2023-04-01T06:56:23;2.55;;;1.90;;
43744;SDS011;29359;53.048;8.732;2023-04-01T06:58:34;2.90;;;1.95;;
43744;SDS011;29359;53.048;8.732;2023-04-01T07:00:39;1.98;;;1.40;;
43744;SDS011;29359;53.048;8.732;2023-04-01T07:02:48;2.92;;;1.75;;
43744;SDS011;29359;53.048;8.732;2023-04-01T07:04:57;1.55;;;1.45;;
43744;SDS011;29359;53.048;8.732;2023-04-01T07:07:00;2.85;;;1.70;;
43744;SDS011;29359;53.048;8.732;2023-04-01T07:09:09;2.17;;;1.60;;
43744;SDS011;29359;53.048;8.732;2023-04-01T07:11:21;2.55;;;1.98;;
43744;SDS011;29359;53.048;8.732;2023-04-01T07:13:38;2.90;;;1.60;;
43744;SDS011;29359;53.048;8.732;2023-04-01T07:15:54;2.22;;;1.63;;
43744;SDS011;29359;53.048;8.732;2023-04-01T07:18:09;1.50;;;1.40;;
43744;SDS011;29359;53.048;8.732;2023-04-01T07:20:25;2.83;;;1.35;;
43744;SDS011;29359;53.048;8.732;2023-04-01T07:24:39;1.77;;;1.63;;
43744;SDS011;29359;53.048;8.732;2023-04-01T07:26:45;2.80;;;1.67;;
43744;SDS011;29359;53.048;8.732;2023-04-01T07:28:48;2.63;;;1.75;;
43744;SDS011;29359;53.048;8.732;2023-04-01T07:33:16;2.10;;;1.58;;
43744;SDS011;29359;53.048;8.732;2023-04-01T07:46:55;1.50;;;1.40;;
43744;SDS011;29359;53.048;8.732;2023-04-01T07:49:10;2.28;;;1.23;;
43744;SDS011;29359;53.048;8.732;2023-04-01T07:51:31;4.78;;;1.58;;
43744;SDS011;29359;53.048;8.732;2023-04-01T07:55:39;2.67;;;1.42;;
43744;SDS011;29359;53.048;8.732;2023-04-01T08:00:25;1.60;;;1.20;;
43744;SDS011;29359;53.048;8.732;2023-04-01T08:05:33;2.78;;;1.00;;
43744;SDS011;29359;53.048;8.732;2023-04-01T08:08:07;1.40;;;1.08;;
43744;SDS011;29359;53.048;8.732;2023-04-01T08:10:26;1.52;;;1.23;;
43744;SDS011;29359;53.048;8.732;2023-04-01T08:13:00;1.13;;;1.05;;
43744;SDS011;29359;53.048;8.732;2023-04-01T08:15:26;1.92;;;1.35;;
43744;SDS011;29359;53.048;8.732;2023-04-01T08:19:50;1.27;;;1.17;;
43744;SDS011;29359;53.048;8.732;2023-04-01T08:22:07;2.90;;;1.30;;
43744;SDS011;29359;53.048;8.732;2023-04-01T08:24:33;1.85;;;1.10;;
43744;SDS011;29359;53.048;8.732;2023-04-01T08:26:49;4.65;;;1.10;;
43744;SDS011;29359;53.048;8.732;2023-04-01T08:28:58;2.60;;;1.33;;
43744;SDS011;29359;53.048;8.732;2023-04-01T08:33:47;1.52;;;1.42;;
43744;SDS011;29359;53.048;8.732;2023-04-01T08:35:53;2.10;;;1.10;;
43744;SDS011;29359;53.048;8.732;2023-04-01T08:43:03;2.42;;;1.08;;
43744;SDS011;29359;53.048;8.732;2023-04-01T08:45:15;2.28;;;0.85;;
43744;SDS011;29359;53.048;8.732;2023-04-01T08:52:41;1.00;;;0.90;;
43744;SDS011;29359;53.048;8.732;2023-04-01T09:00:32;2.13;;;1.10;;
43744;SDS011;29359;53.048;8.732;2023-04-01T09:10:46;2.92;;;0.88;;
43744;SDS011;29359;53.048;8.732;2023-04-01T09:15:27;4.22;;;0.80;;
43744;SDS011;29359;53.048;8.732;2023-04-01T09:20:57;2.60;;;0.90;;
43744;SDS011;29359;53.048;8.732;2023-04-01T09:30:13;1.10;;;0.75;;
43744;SDS011;29359;53.048;8.732;2023-04-01T09:37:19;2.83;;;1.20;;
43744;SDS011;29359;53.048;8.732;2023-04-01T09:41:55;1.58;;;0.80;;
43744;SDS011;29359;53.048;8.732;2023-04-01T09:44:02;0.75;;;0.70;;
43744;SDS011;29359;53.048;8.732;2023-04-01T09:48:40;1.05;;;0.70;;
43744;SDS011;29359;53.048;8.732;2023-04-01T09:51:19;1.83;;;0.73;;
43744;SDS011;29359;53.048;8.732;2023-04-01T09:58:57;0.82;;;0.70;;
43744;SDS011;29359;53.048;8.732;2023-04-01T10:01:34;1.10;;;0.60;;
43744;SDS011;29359;53.048;8.732;2023-04-01T10:11:15;1.02;;;0.60;;
43744;SDS011;29359;53.048;8.732;2023-04-01T11:05:50;0.10;;;0.10;;
43744;SDS011;29359;53.048;8.732;2023-04-01T11:08:15;1.45;;;0.20;;
43744;SDS011;29359;53.048;8.732;2023-04-01T11:11:23;2.72;;;0.13;;
43744;SDS011;29359;53.048;8.732;2023-04-01T11:31:43;0.98;;;0.30;;
43744;SDS011;29359;53.048;8.732;2023-04-01T11:33:57;0.20;;;0.20;;
43744;SDS011;29359;53.048;8.732;2023-04-01T11:36:05;0.20;;;0.20;;
43744;SDS011;29359;53.048;8.732;2023-04-01T11:38:15;0.65;;;0.30;;
43744;SDS011;29359;53.048;8.732;2023-04-01T11:40:31;1.95;;;0.20;;
43744;SDS011;29359;53.048;8.732;2023-04-01T11:42:46;0.30;;;0.30;;
43744;SDS011;29359;53.048;8.732;2023-04-01T11:44:58;0.30;;;0.30;;
43744;SDS011;29359;53.048;8.732;2023-04-01T11:56:47;0.38;;;0.35;;
43744;SDS011;29359;53.048;8.732;2023-04-01T12:06:53;0.50;;;0.40;;
43744;SDS011;29359;53.048;8.732;2023-04-01T12:09:14;3.47;;;0.40;;
43744;SDS011;29359;53.048;8.732;2023-04-01T12:13:52;1.02;;;0.40;;
43744;SDS011;29359;53.048;8.732;2023-04-01T12:20:51;0.55;;;0.40;;
43744;SDS011;29359;53.048;8.732;2023-04-01T12:25:19;1.10;;;0.40;;
43744;SDS011;29359;53.048;8.732;2023-04-01T12:27:38;0.40;;;0.40;;
43744;SDS011;29359;53.048;8.732;2023-04-01T12:35:11;4.07;;;0.60;;
43744;SDS011;29359;53.048;8.732;2023-04-01T12:42:07;1.92;;;0.60;;
43744;SDS011;29359;53.048;8.732;2023-04-01T12:49:00;1.85;;;0.60;;
43744;SDS011;29359;53.048;8.732;2023-04-01T12:55:41;0.50;;;0.40;;
43744;SDS011;29359;53.048;8.732;2023-04-01T13:03:44;0.47;;;0.35;;
43744;SDS011;29359;53.048;8.732;2023-04-01T13:10:41;0.30;;;0.30;;
43744;SDS011;29359;53.048;8.732;2023-04-01T13:17:31;0.30;;;0.30;;
43744;SDS011;29359;53.048;8.732;2023-04-01T13:20:24;0.30;;;0.30;;
43744;SDS011;29359;53.048;8.732;2023-04-01T13:22:45;0.50;;;0.50;;
43744;SDS011;29359;53.048;8.732;2023-04-01T13:27:18;0.30;;;0.30;;
43744;SDS011;29359;53.048;8.732;2023-04-01T13:29:35;0.45;;;0.40;;
43744;SDS011;29359;53.048;8.732;2023-04-01T13:34:03;0.40;;;0.40;;
43744;SDS011;29359;53.048;8.732;2023-04-01T13:38:39;0.40;;;0.30;;
43744;SDS011;29359;53.048;8.732;2023-04-01T13:43:14;0.20;;;0.20;;
43744;SDS011;29359;53.048;8.732;2023-04-01T13:45:21;0.40;;;0.30;;
43744;SDS011;29359;53.048;8.732;2023-04-01T13:54:17;0.20;;;0.20;;
43744;SDS011;29359;53.048;8.732;2023-04-01T13:58:50;2.30;;;0.30;;
43744;SDS011;29359;53.048;8.732;2023-04-01T14:03:28;0.30;;;0.20;;
43744;SDS011;29359;53.048;8.732;2023-04-01T14:05:54;1.67;;;0.30;;
43744;SDS011;29359;53.048;8.732;2023-04-01T14:08:10;0.40;;;0.40;;
43744;SDS011;29359;53.048;8.732;2023-04-01T14:23:28;0.25;;;0.25;;
43744;SDS011;29359;53.048;8.732;2023-04-01T14:32:57;0.50;;;0.50;;
43744;SDS011;29359;53.048;8.732;2023-04-01T14:35:17;0.57;;;0.43;;
43744;SDS011;29359;53.048;8.732;2023-04-01T14:40:26;0.60;;;0.50;;
43744;SDS011;29359;53.048;8.732;2023-04-01T14:49:37;0.70;;;0.70;;
43744;SDS011;29359;53.048;8.732;2023-04-01T14:51:39;0.82;;;0.70;;
43744;SDS011;29359;53.048;8.732;2023-04-01T14:53:53;0.80;;;0.60;;
43744;SDS011;29359;53.048;8.732;2023-04-01T14:56:10;0.88;;;0.73;;
43744;SDS011;29359;53.048;8.732;2023-04-01T14:58:16;0.85;;;0.73;;
43744;SDS011;29359;53.048;8.732;2023-04-01T15:00:19;0.70;;;0.70;;
43744;SDS011;29359;53.048;8.732;2023-04-01T15:02:33;1.40;;;1.00;;
43744;SDS011;29359;53.048;8.732;2023-04-01T15:07:00;1.15;;;1.00;;
43744;SDS011;29359;53.048;8.732;2023-04-01T15:09:28;0.80;;;0.80;;
43744;SDS011;29359;53.048;8.732;2023-04-01T15:11:37;1.33;;;1.00;;
43744;SDS011;29359;53.048;8.732;2023-04-01T15:14:01;2.03;;;1.40;;
43744;SDS011;29359;53.048;8.732;2023-04-01T15:20:30;2.30;;;1.30;;
43744;SDS011;29359;53.048;8.732;2023-04-01T15:29:55;1.30;;;1.20;;
43744;SDS011;29359;53.048;8.732;2023-04-01T15:42:14;2.47;;;1.52;;
43744;SDS011;29359;53.048;8.732;2023-04-01T15:46:41;2.15;;;1.38;;
43744;SDS011;29359;53.048;8.732;2023-04-01T15:56:13;1.77;;;1.10;;
43744;SDS011;29359;53.048;8.732;2023-04-01T16:14:48;1.20;;;1.10;;
43744;SDS011;29359;53.048;8.732;2023-04-01T16:21:36;1.92;;;1.27;;
43744;SDS011;29359;53.048;8.732;2023-04-01T16:23:56;1.73;;;1.63;;
43744;SDS011;29359;53.048;8.732;2023-04-01T16:26:14;2.45;;;1.30;;
43744;SDS011;29359;53.048;8.732;2023-04-01T16:33:03;1.40;;;1.00;;
43744;SDS011;29359;53.048;8.732;2023-04-01T16:37:44;1.75;;;1.13;;
43744;SDS011;29359;53.048;8.732;2023-04-01T16:40:16;2.13;;;1.13;;
43744;SDS011;29359;53.048;8.732;2023-04-01T16:47:06;1.45;;;1.10;;
43744;SDS011;29359;53.048;8.732;2023-04-01T16:51:32;1.60;;;1.50;;
43744;SDS011;29359;53.048;8.732;2023-04-01T16:53:53;2.22;;;1.60;;
43744;SDS011;29359;53.048;8.732;2023-04-01T16:56:10;1.70;;;1.48;;
43744;SDS011;29359;53.048;8.732;2023-04-01T16:58:25;2.05;;;1.42;;
43744;SDS011;29359;53.048;8.732;2023-04-01T17:00:38;2.05;;;1.60;;
43744;SDS011;29359;53.048;8.732;2023-04-01T17:02:54;1.65;;;1.55;;
43744;SDS011;29359;53.048;8.732;2023-04-01T17:05:11;2.58;;;1.60;;
43744;SDS011;29359;53.048;8.732;2023-04-01T17:12:05;3.13;;;1.83;;
43744;SDS011;29359;53.048;8.732;2023-04-01T17:21:38;1.80;;;1.65;;
43744;SDS011;29359;53.048;8.732;2023-04-01T17:23:44;1.85;;;1.38;;
43744;SDS011;29359;53.048;8.732;2023-04-01T17:40:05;2.25;;;1.92;;
43744;SDS011;29359;53.048;8.732;2023-04-01T17:45:04;1.75;;;1.65;;
43744;SDS011;29359;53.048;8.732;2023-04-01T17:49:42;3.35;;;2.00;;
43744;SDS011;29359;53.048;8.732;2023-04-01T17:52:02;4.43;;;1.90;;
43744;SDS011;29359;53.048;8.732;2023-04-01T17:59:19;1.95;;;1.65;;
43744;SDS011;29359;53.048;8.732;2023-04-01T18:06:01;2.45;;;1.63;;
43744;SDS011;29359;53.048;8.732;2023-04-01T18:08:26;2.72;;;1.88;;
43744;SDS011;29359;53.048;8.732;2023-04-01T18:15:16;2.53;;;2.10;;
43744;SDS011;29359;53.048;8.732;2023-04-01T18:17:38;4.18;;;2.97;;
43744;SDS011;29359;53.048;8.732;2023-04-01T18:27:06;5.32;;;2.15;;
43744;SDS011;29359;53.048;8.732;2023-04-01T18:31:34;4.20;;;2.53;;
43744;SDS011;29359;53.048;8.732;2023-04-01T18:33:44;2.80;;;1.83;;
43744;SDS011;29359;53.048;8.732;2023-04-01T18:35:52;2.15;;;1.95;;
43744;SDS011;29359;53.048;8.732;2023-04-01T18:42:38;3.67;;;2.45;;
43744;SDS011;29359;53.048;8.732;2023-04-01T18:51:27;3.65;;;2.00;;
43744;SDS011;29359;53.048;8.732;2023-04-01T18:53:42;4.63;;;2.05;;
43744;SDS011;29359;53.048;8.732;2023-04-01T18:55:51;2.83;;;2.00;;
43744;SDS011;29359;53.048;8.732;2023-04-01T18:58:05;4.10;;;2.00;;
43744;SDS011;29359;53.048;8.732;2023-04-01T19:02:43;5.45;;;2.20;;
43744;SDS011;29359;53.048;8.732;2023-04-01T19:09:44;3.20;;;2.72;;
43744;SDS011;29359;53.048;8.732;2023-04-01T19:19:34;3.47;;;1.88;;
43744;SDS011;29359;53.048;8.732;2023-04-01T19:21:43;2.97;;;1.77;;
43744;SDS011;29359;53.048;8.732;2023-04-01T19:26:39;7.82;;;1.95;;
43744;SDS011;29359;53.048;8.732;2023-04-01T19:29:06;5.47;;;3.47;;
43744;SDS011;29359;53.048;8.732;2023-04-01T19:36:11;2.92;;;2.40;;
43744;SDS011;29359;53.048;8.732;2023-04-01T19:38:21;6.28;;;2.75;;
43744;SDS011;29359;53.048;8.732;2023-04-01T19:40:35;3.85;;;2.47;;
43744;SDS011;29359;53.048;8.732;2023-04-01T19:43:02;7.30;;;2.50;;
43744;SDS011;29359;53.048;8.732;2023-04-01T19:55:14;3.13;;;2.20;;
43744;SDS011;29359;53.048;8.732;2023-04-01T19:59:19;4.70;;;2.53;;
43744;SDS011;29359;53.048;8.732;2023-04-01T20:01:34;3.95;;;2.63;;
43744;SDS011;29359;53.048;8.732;2023-04-01T20:03:50;6.43;;;2.45;;
43744;SDS011;29359;53.048;8.732;2023-04-01T20:08:10;3.42;;;2.72;;
43744;SDS011;29359;53.048;8.732;2023-04-01T20:10:20;5.97;;;2.92;;
43744;SDS011;29359;53.048;8.732;2023-04-01T20:18:58;3.60;;;2.67;;
43744;SDS011;29359;53.048;8.732;2023-04-01T20:21:02;3.33;;;2.75;;
43744;SDS011;29359;53.048;8.732;2023-04-01T20:23:17;3.85;;;3.03;;
43744;SDS011;29359;53.048;8.732;2023-04-01T20:25:33;6.53;;;3.03;;
43744;SDS011;29359;53.048;8.732;2023-04-01T20:42:00;7.40;;;3.50;;
43744;SDS011;29359;53.048;8.732;2023-04-01T20:44:32;4.57;;;3.00;;
43744;SDS011;29359;53.048;8.732;2023-04-01T20:51:36;4.70;;;3.30;;
43744;SDS011;29359;53.048;8.732;2023-04-01T20:55:54;5.95;;;3.08;;
43744;SDS011;29359;53.048;8.732;2023-04-01T20:59:02;2.97;;;2.67;;
43744;SDS011;29359;53.048;8.732;2023-04-01T21:00:44;3.95;;;2.85;;
43744;SDS011;29359;53.048;8.732;2023-04-01T21:05:35;2.88;;;2.30;;
43744;SDS011;29359;53.048;8.732;2023-04-01T21:07:56;3.67;;;2.50;;
43744;SDS011;29359;53.048;8.732;2023-04-01T21:10:11;4.82;;;3.33;;
43744;SDS011;29359;53.048;8.732;2023-04-01T21:17:26;4.40;;;2.38;;
43744;SDS011;29359;53.048;8.732;2023-04-01T21:33:59;4.90;;;2.85;;
43744;SDS011;29359;53.048;8.732;2023-04-01T22:05:10;5.22;;;2.10;;
43744;SDS011;29359;53.048;8.732;2023-04-01T22:07:19;7.72;;;2.03;;
43744;SDS011;29359;53.048;8.732;2023-04-01T22:09:25;2.45;;;1.77;;
43744;SDS011;29359;53.048;8.732;2023-04-01T22:11:53;5.45;;;2.15;;
43744;SDS011;29359;53.048;8.732;2023-04-01T22:14:09;4.40;;;1.90;;
43744;SDS011;29359;53.048;8.732;2023-04-01T22:18:31;3.42;;;1.95;;
43744;SDS011;29359;53.048;8.732;2023-04-01T22:20:50;4.88;;;2.38;;
43744;SDS011;29359;53.048;8.732;2023-04-01T22:25:51;2.72;;;1.80;;
43744;SDS011;29359;53.048;8.732;2023-04-01T22:28:04;3.78;;;1.67;;
43744;SDS011;29359;53.048;8.732;2023-04-01T22:32:37;3.35;;;2.00;;